Aérodrome :
LOGIN :

S'inscrire | Disclaimer

   EN    FR    IT 

 










Légende :    VFR   VFR Marginal   IFR   IFR Intensif   IFR Très Intensif
Visi : 
Plafond : 
>= 8 km
>= 3000ft
5 à 8 km
1000 à 3000 ft
1500m à 5 km
500 à 1000 ft
800 à 1500m
200 à 500 ft
< 800m
< 200 ft
Symboles :   Orages  Brouillard  Fortes neiges  Fortes précipitations  Vent > 20 kt
SIGMETs :   Divers  Orages  Givrage  Turbulence  Onde Orograph.  Cendres Volcan.






- Altitude de l'aérodrome : 443 ft
- Code IATA : SQQ


EYSA - Siauliai

DERNIER METAR :
  • 032050Z 24008KT 9999 FEW021 02/M00 Q1006 BLU NOSIG

METARs EXPIRÉS :
  • 032020Z 22010KT 9999 SCT027 BKN110 02/00 Q1006 BLU NOSIG
  • 031950Z 22008KT 9999 FEW026 SCT098 02/00 Q1006 BLU NOSIG
  • 031920Z 23011KT 9999 FEW026 03/M00 Q1006 BLU NOSIG
  • 031850Z 22008KT 190V260 9999 SCT026 03/M00 Q1005 BLU NOSIG
  • 031820Z 22009KT 9999 SCT028 03/M00 Q1005 BLU NOSIG

TAF TAF EYSA
Valide du 03 à 21h jusqu'au 04 à 06h UTC


032004Z 0321/0406 24014KT 9000 SCT020
TEMPO 0321/0403 3000 SHSNRA BKN005 BKN015CB



MET'MAP, la Météo Aéronautique d'un coup d'oeil ! - Copyright ORBIFLY Décembre 2007 - Disclaimer

ORBIFLY MET'MAP TEAM :

Programmation & Développement : Alexandra Zaïnal
Sur une idée originale de : Baudouin d'Aumeries
Assistance à la programmation : Marc-Olivier Méhu
Soutien technique & logistique : Manuel Goepfert

Contact : metmap@orbifly.com




SOURCES & CREDITS :

   NOAA